sensor_id;sensor_type;location;lat;lon;timestamp;temperature;humidity
16038;DHT22;8123;50.906;6.172;2023-11-18T00:00:49;7.40;65.50
16038;DHT22;8123;50.906;6.172;2023-11-18T00:03:14;7.50;65.20
16038;DHT22;8123;50.906;6.172;2023-11-18T00:05:40;7.40;58.10
16038;DHT22;8123;50.906;6.172;2023-11-18T00:08:06;7.40;57.70
16038;DHT22;8123;50.906;6.172;2023-11-18T00:10:32;7.60;59.70
16038;DHT22;8123;50.906;6.172;2023-11-18T00:12:57;7.40;65.00
16038;DHT22;8123;50.906;6.172;2023-11-18T00:15:23;7.30;71.30
16038;DHT22;8123;50.906;6.172;2023-11-18T00:17:49;7.40;73.10
16038;DHT22;8123;50.906;6.172;2023-11-18T00:20:14;7.40;75.50
16038;DHT22;8123;50.906;6.172;2023-11-18T00:22:42;7.30;74.90
16038;DHT22;8123;50.906;6.172;2023-11-18T00:25:08;7.20;74.90
16038;DHT22;8123;50.906;6.172;2023-11-18T00:27:34;7.30;74.90
16038;DHT22;8123;50.906;6.172;2023-11-18T00:30:04;7.00;77.30
16038;DHT22;8123;50.906;6.172;2023-11-18T00:32:39;7.00;88.00
16038;DHT22;8123;50.906;6.172;2023-11-18T00:35:05;7.10;92.40
16038;DHT22;8123;50.906;6.172;2023-11-18T00:37:32;7.10;95.60
16038;DHT22;8123;50.906;6.172;2023-11-18T00:39:58;7.00;97.50
16038;DHT22;8123;50.906;6.172;2023-11-18T00:42:24;7.10;97.50
16038;DHT22;8123;50.906;6.172;2023-11-18T00:44:50;7.00;96.00
16038;DHT22;8123;50.906;6.172;2023-11-18T00:47:15;7.20;95.60
16038;DHT22;8123;50.906;6.172;2023-11-18T00:49:41;7.00;94.40
16038;DHT22;8123;50.906;6.172;2023-11-18T00:52:06;6.90;94.30
16038;DHT22;8123;50.906;6.172;2023-11-18T00:54:32;6.90;93.70
16038;DHT22;8123;50.906;6.172;2023-11-18T00:56:58;6.80;92.20
16038;DHT22;8123;50.906;6.172;2023-11-18T00:59:23;6.80;92.90
16038;DHT22;8123;50.906;6.172;2023-11-18T01:01:49;6.70;91.20
16038;DHT22;8123;50.906;6.172;2023-11-18T01:04:15;6.50;80.30
16038;DHT22;8123;50.906;6.172;2023-11-18T01:06:42;6.40;73.70
16038;DHT22;8123;50.906;6.172;2023-11-18T01:09:08;6.20;73.70
16038;DHT22;8123;50.906;6.172;2023-11-18T01:11:35;6.40;71.80
16038;DHT22;8123;50.906;6.172;2023-11-18T01:14:01;6.10;75.80
16038;DHT22;8123;50.906;6.172;2023-11-18T01:16:27;6.00;81.10
16038;DHT22;8123;50.906;6.172;2023-11-18T01:18:54;6.10;90.60
16038;DHT22;8123;50.906;6.172;2023-11-18T01:21:20;6.10;93.00
16038;DHT22;8123;50.906;6.172;2023-11-18T01:23:45;6.10;94.60
16038;DHT22;8123;50.906;6.172;2023-11-18T01:26:11;5.90;94.20
16038;DHT22;8123;50.906;6.172;2023-11-18T01:28:38;6.00;96.20
16038;DHT22;8123;50.906;6.172;2023-11-18T01:31:09;6.00;98.20
16038;DHT22;8123;50.906;6.172;2023-11-18T01:33:38;6.00;99.90
16038;DHT22;8123;50.906;6.172;2023-11-18T01:36:08;6.00;99.90
16038;DHT22;8123;50.906;6.172;2023-11-18T01:38:35;6.00;99.90
16038;DHT22;8123;50.906;6.172;2023-11-18T01:41:00;6.20;99.90
16038;DHT22;8123;50.906;6.172;2023-11-18T01:43:26;6.00;99.90
16038;DHT22;8123;50.906;6.172;2023-11-18T01:45:52;6.00;99.90
16038;DHT22;8123;50.906;6.172;2023-11-18T01:48:23;5.80;99.90
16038;DHT22;8123;50.906;6.172;2023-11-18T01:50:51;5.90;99.90
16038;DHT22;8123;50.906;6.172;2023-11-18T01:53:17;6.00;99.90
16038;DHT22;8123;50.906;6.172;2023-11-18T01:55:43;6.20;99.90
16038;DHT22;8123;50.906;6.172;2023-11-18T01:58:08;6.00;99.90
16038;DHT22;8123;50.906;6.172;2023-11-18T02:00:41;5.90;99.90
16038;DHT22;8123;50.906;6.172;2023-11-18T02:03:14;6.00;99.90
16038;DHT22;8123;50.906;6.172;2023-11-18T02:05:39;6.20;99.90
16038;DHT22;8123;50.906;6.172;2023-11-18T02:08:07;6.30;99.90
16038;DHT22;8123;50.906;6.172;2023-11-18T02:10:34;6.30;99.90
16038;DHT22;8123;50.906;6.172;2023-11-18T02:15:33;5.80;99.90
16038;DHT22;8123;50.906;6.172;2023-11-18T02:18:02;6.20;99.90
16038;DHT22;8123;50.906;6.172;2023-11-18T02:20:29;6.30;99.90
16038;DHT22;8123;50.906;6.172;2023-11-18T02:22:56;6.40;99.90
16038;DHT22;8123;50.906;6.172;2023-11-18T02:25:24;6.40;99.90
16038;DHT22;8123;50.906;6.172;2023-11-18T02:27:52;6.50;99.90
16038;DHT22;8123;50.906;6.172;2023-11-18T02:30:19;6.50;99.90
16038;DHT22;8123;50.906;6.172;2023-11-18T02:33:03;6.50;99.90
16038;DHT22;8123;50.906;6.172;2023-11-18T02:35:38;6.60;99.90
16038;DHT22;8123;50.906;6.172;2023-11-18T02:38:05;6.50;99.90
16038;DHT22;8123;50.906;6.172;2023-11-18T02:40:37;6.70;99.90
16038;DHT22;8123;50.906;6.172;2023-11-18T02:43:06;6.60;99.90
16038;DHT22;8123;50.906;6.172;2023-11-18T02:45:34;6.60;99.90
16038;DHT22;8123;50.906;6.172;2023-11-18T02:48:01;6.60;99.90
16038;DHT22;8123;50.906;6.172;2023-11-18T02:50:27;6.60;99.90
16038;DHT22;8123;50.906;6.172;2023-11-18T02:52:54;6.40;99.70
16038;DHT22;8123;50.906;6.172;2023-11-18T02:55:20;6.40;98.40
16038;DHT22;8123;50.906;6.172;2023-11-18T02:57:50;6.40;98.90
16038;DHT22;8123;50.906;6.172;2023-11-18T03:00:18;6.30;99.50
16038;DHT22;8123;50.906;6.172;2023-11-18T03:02:47;6.30;99.50
16038;DHT22;8123;50.906;6.172;2023-11-18T03:05:14;6.40;99.90
16038;DHT22;8123;50.906;6.172;2023-11-18T03:07:49;6.70;99.90
16038;DHT22;8123;50.906;6.172;2023-11-18T03:10:24;6.40;99.90
16038;DHT22;8123;50.906;6.172;2023-11-18T03:12:51;6.40;99.90
16038;DHT22;8123;50.906;6.172;2023-11-18T03:15:21;6.30;99.90
16038;DHT22;8123;50.906;6.172;2023-11-18T03:17:50;6.30;99.90
16038;DHT22;8123;50.906;6.172;2023-11-18T03:20:17;6.30;99.90
16038;DHT22;8123;50.906;6.172;2023-11-18T03:22:47;6.30;99.90
16038;DHT22;8123;50.906;6.172;2023-11-18T03:25:13;6.40;99.90
16038;DHT22;8123;50.906;6.172;2023-11-18T03:27:39;6.50;99.90
16038;DHT22;8123;50.906;6.172;2023-11-18T03:30:06;6.40;99.90
16038;DHT22;8123;50.906;6.172;2023-11-18T03:32:34;6.20;99.90
16038;DHT22;8123;50.906;6.172;2023-11-18T03:35:01;6.20;99.90
16038;DHT22;8123;50.906;6.172;2023-11-18T03:37:27;6.40;99.90
16038;DHT22;8123;50.906;6.172;2023-11-18T03:39:53;6.60;99.90
16038;DHT22;8123;50.906;6.172;2023-11-18T03:42:18;6.20;99.90
16038;DHT22;8123;50.906;6.172;2023-11-18T03:44:44;6.20;99.90
16038;DHT22;8123;50.906;6.172;2023-11-18T03:47:13;6.40;99.90
16038;DHT22;8123;50.906;6.172;2023-11-18T03:49:40;6.30;99.90
16038;DHT22;8123;50.906;6.172;2023-11-18T03:52:06;6.40;99.90
16038;DHT22;8123;50.906;6.172;2023-11-18T03:54:32;6.40;99.90
16038;DHT22;8123;50.906;6.172;2023-11-18T03:56:57;6.50;99.90
16038;DHT22;8123;50.906;6.172;2023-11-18T03:59:23;6.50;99.90
16038;DHT22;8123;50.906;6.172;2023-11-18T04:01:48;6.50;99.90
16038;DHT22;8123;50.906;6.172;2023-11-18T04:04:16;6.50;99.90
16038;DHT22;8123;50.906;6.172;2023-11-18T04:06:43;6.50;99.90
16038;DHT22;8123;50.906;6.172;2023-11-18T04:09:08;6.60;98.50
16038;DHT22;8123;50.906;6.172;2023-11-18T04:11:35;6.70;95.50
16038;DHT22;8123;50.906;6.172;2023-11-18T04:14:01;6.70;86.50
16038;DHT22;8123;50.906;6.172;2023-11-18T04:16:29;6.70;72.50
16038;DHT22;8123;50.906;6.172;2023-11-18T04:18:54;6.70;61.80
16038;DHT22;8123;50.906;6.172;2023-11-18T04:21:21;6.70;51.70
16038;DHT22;8123;50.906;6.172;2023-11-18T04:23:48;6.60;44.40
16038;DHT22;8123;50.906;6.172;2023-11-18T04:26:14;6.60;40.70
16038;DHT22;8123;50.906;6.172;2023-11-18T04:28:39;6.90;37.30
16038;DHT22;8123;50.906;6.172;2023-11-18T04:31:06;6.60;34.90
16038;DHT22;8123;50.906;6.172;2023-11-18T04:33:31;6.60;29.60
16038;DHT22;8123;50.906;6.172;2023-11-18T04:35:57;6.60;27.60
16038;DHT22;8123;50.906;6.172;2023-11-18T04:38:24;6.60;27.60
16038;DHT22;8123;50.906;6.172;2023-11-18T04:40:51;6.50;26.80
16038;DHT22;8123;50.906;6.172;2023-11-18T04:43:16;6.50;26.80
16038;DHT22;8123;50.906;6.172;2023-11-18T04:45:45;6.50;26.40
16038;DHT22;8123;50.906;6.172;2023-11-18T04:48:10;6.40;28.00
16038;DHT22;8123;50.906;6.172;2023-11-18T04:50:39;6.40;30.60
16038;DHT22;8123;50.906;6.172;2023-11-18T04:53:05;6.40;34.30
16038;DHT22;8123;50.906;6.172;2023-11-18T04:55:34;6.40;38.70
16038;DHT22;8123;50.906;6.172;2023-11-18T04:58:00;6.40;41.60
16038;DHT22;8123;50.906;6.172;2023-11-18T05:00:26;6.40;46.80
16038;DHT22;8123;50.906;6.172;2023-11-18T05:02:53;6.40;48.60
16038;DHT22;8123;50.906;6.172;2023-11-18T05:05:19;6.60;51.10
16038;DHT22;8123;50.906;6.172;2023-11-18T05:07:44;6.40;53.60
16038;DHT22;8123;50.906;6.172;2023-11-18T05:10:10;6.50;55.40
16038;DHT22;8123;50.906;6.172;2023-11-18T05:12:37;6.60;48.40
16038;DHT22;8123;50.906;6.172;2023-11-18T05:15:04;6.60;39.30
16038;DHT22;8123;50.906;6.172;2023-11-18T05:17:31;6.60;32.00
16038;DHT22;8123;50.906;6.172;2023-11-18T05:19:57;6.80;23.20
16038;DHT22;8123;50.906;6.172;2023-11-18T05:22:23;6.60;19.10
16038;DHT22;8123;50.906;6.172;2023-11-18T05:24:48;6.90;13.20
16038;DHT22;8123;50.906;6.172;2023-11-18T05:27:15;6.80;10.90
16038;DHT22;8123;50.906;6.172;2023-11-18T05:29:40;6.60;8.60
16038;DHT22;8123;50.906;6.172;2023-11-18T05:32:07;6.60;3.90
16038;DHT22;8123;50.906;6.172;2023-11-18T05:34:33;6.70;3.40
16038;DHT22;8123;50.906;6.172;2023-11-18T05:37:01;6.70;1.00
16038;DHT22;8123;50.906;6.172;2023-11-18T05:39:26;6.70;1.00
16038;DHT22;8123;50.906;6.172;2023-11-18T05:41:59;6.70;1.00
16038;DHT22;8123;50.906;6.172;2023-11-18T05:44:25;6.70;1.50
16038;DHT22;8123;50.906;6.172;2023-11-18T05:47:03;6.80;2.20
16038;DHT22;8123;50.906;6.172;2023-11-18T05:49:29;6.70;5.90
16038;DHT22;8123;50.906;6.172;2023-11-18T05:51:54;6.80;10.60
16038;DHT22;8123;50.906;6.172;2023-11-18T05:54:21;6.70;8.90
16038;DHT22;8123;50.906;6.172;2023-11-18T05:56:47;7.10;9.80
16038;DHT22;8123;50.906;6.172;2023-11-18T05:59:12;6.90;4.20
16038;DHT22;8123;50.906;6.172;2023-11-18T06:01:41;6.80;1.90
16038;DHT22;8123;50.906;6.172;2023-11-18T06:04:07;6.80;2.80
16038;DHT22;8123;50.906;6.172;2023-11-18T06:06:36;7.00;2.60
16038;DHT22;8123;50.906;6.172;2023-11-18T06:09:03;6.80;6.70
16038;DHT22;8123;50.906;6.172;2023-11-18T06:11:42;6.70;9.90
16038;DHT22;8123;50.906;6.172;2023-11-18T06:14:10;6.70;15.30
16038;DHT22;8123;50.906;6.172;2023-11-18T06:16:35;6.60;19.50
16038;DHT22;8123;50.906;6.172;2023-11-18T06:19:01;6.70;22.90
16038;DHT22;8123;50.906;6.172;2023-11-18T06:21:33;6.60;24.30
16038;DHT22;8123;50.906;6.172;2023-11-18T06:24:00;6.70;29.20
16038;DHT22;8123;50.906;6.172;2023-11-18T06:26:27;6.70;34.60
16038;DHT22;8123;50.906;6.172;2023-11-18T06:28:54;6.90;35.60
16038;DHT22;8123;50.906;6.172;2023-11-18T06:31:20;6.90;36.50
16038;DHT22;8123;50.906;6.172;2023-11-18T06:33:47;6.70;34.80
16038;DHT22;8123;50.906;6.172;2023-11-18T06:38:49;6.90;38.80
16038;DHT22;8123;50.906;6.172;2023-11-18T06:41:16;6.70;39.20
16038;DHT22;8123;50.906;6.172;2023-11-18T06:43:44;6.70;41.00
16038;DHT22;8123;50.906;6.172;2023-11-18T06:46:19;6.70;40.10
16038;DHT22;8123;50.906;6.172;2023-11-18T06:48:52;6.70;41.50
16038;DHT22;8123;50.906;6.172;2023-11-18T06:51:25;6.80;45.60
16038;DHT22;8123;50.906;6.172;2023-11-18T06:53:57;6.80;46.70
16038;DHT22;8123;50.906;6.172;2023-11-18T06:56:26;6.80;40.70
16038;DHT22;8123;50.906;6.172;2023-11-18T06:58:53;6.80;38.80
16038;DHT22;8123;50.906;6.172;2023-11-18T07:01:19;6.80;37.70
16038;DHT22;8123;50.906;6.172;2023-11-18T07:03:46;7.00;38.80
16038;DHT22;8123;50.906;6.172;2023-11-18T07:06:18;6.70;36.40
16038;DHT22;8123;50.906;6.172;2023-11-18T07:08:52;6.70;36.10
16038;DHT22;8123;50.906;6.172;2023-11-18T07:11:19;6.90;40.20
16038;DHT22;8123;50.906;6.172;2023-11-18T07:13:48;6.70;43.50
16038;DHT22;8123;50.906;6.172;2023-11-18T07:16:15;6.70;47.40
16038;DHT22;8123;50.906;6.172;2023-11-18T07:18:41;6.90;49.00
16038;DHT22;8123;50.906;6.172;2023-11-18T07:21:10;6.80;49.80
16038;DHT22;8123;50.906;6.172;2023-11-18T07:23:36;6.90;53.60
16038;DHT22;8123;50.906;6.172;2023-11-18T07:26:02;7.00;50.40
16038;DHT22;8123;50.906;6.172;2023-11-18T07:28:29;6.90;42.90
16038;DHT22;8123;50.906;6.172;2023-11-18T07:30:55;6.90;45.50
16038;DHT22;8123;50.906;6.172;2023-11-18T07:33:20;6.90;40.90
16038;DHT22;8123;50.906;6.172;2023-11-18T07:35:47;6.90;39.20
16038;DHT22;8123;50.906;6.172;2023-11-18T07:38:14;7.00;40.90
16038;DHT22;8123;50.906;6.172;2023-11-18T07:40:40;7.00;34.60
16038;DHT22;8123;50.906;6.172;2023-11-18T07:43:17;7.00;30.10
16038;DHT22;8123;50.906;6.172;2023-11-18T07:45:43;6.90;27.80
16038;DHT22;8123;50.906;6.172;2023-11-18T07:48:10;7.00;29.10
16038;DHT22;8123;50.906;6.172;2023-11-18T07:50:38;7.00;31.30
16038;DHT22;8123;50.906;6.172;2023-11-18T07:53:06;7.10;32.00
16038;DHT22;8123;50.906;6.172;2023-11-18T07:55:33;7.10;34.80
16038;DHT22;8123;50.906;6.172;2023-11-18T07:58:08;7.10;34.30
16038;DHT22;8123;50.906;6.172;2023-11-18T08:00:38;7.10;32.90
16038;DHT22;8123;50.906;6.172;2023-11-18T08:03:07;7.10;32.30
16038;DHT22;8123;50.906;6.172;2023-11-18T08:05:38;7.20;34.30
16038;DHT22;8123;50.906;6.172;2023-11-18T08:08:06;7.20;29.30
16038;DHT22;8123;50.906;6.172;2023-11-18T08:10:33;7.30;25.80
16038;DHT22;8123;50.906;6.172;2023-11-18T08:12:59;7.30;27.20
16038;DHT22;8123;50.906;6.172;2023-11-18T08:15:24;7.30;28.30
16038;DHT22;8123;50.906;6.172;2023-11-18T08:17:52;7.60;30.40
16038;DHT22;8123;50.906;6.172;2023-11-18T08:20:19;7.40;28.10
16038;DHT22;8123;50.906;6.172;2023-11-18T08:22:49;7.50;27.60
16038;DHT22;8123;50.906;6.172;2023-11-18T08:25:14;7.40;27.40
16038;DHT22;8123;50.906;6.172;2023-11-18T08:27:43;7.50;28.70
16038;DHT22;8123;50.906;6.172;2023-11-18T08:30:09;7.50;28.20
16038;DHT22;8123;50.906;6.172;2023-11-18T08:32:40;7.60;30.00
16038;DHT22;8123;50.906;6.172;2023-11-18T08:35:09;7.70;31.40
16038;DHT22;8123;50.906;6.172;2023-11-18T08:37:36;7.70;34.90
16038;DHT22;8123;50.906;6.172;2023-11-18T08:40:07;7.80;30.90
16038;DHT22;8123;50.906;6.172;2023-11-18T08:42:50;7.80;28.50
16038;DHT22;8123;50.906;6.172;2023-11-18T08:45:16;7.80;25.60
16038;DHT22;8123;50.906;6.172;2023-11-18T08:47:45;7.90;23.60
16038;DHT22;8123;50.906;6.172;2023-11-18T08:50:16;7.90;24.00
16038;DHT22;8123;50.906;6.172;2023-11-18T08:52:42;8.10;20.80
16038;DHT22;8123;50.906;6.172;2023-11-18T08:55:16;8.10;15.30
16038;DHT22;8123;50.906;6.172;2023-11-18T08:57:45;8.10;3.20
16038;DHT22;8123;50.906;6.172;2023-11-18T09:00:27;8.20;1.00
16038;DHT22;8123;50.906;6.172;2023-11-18T09:03:18;8.30;1.00
16038;DHT22;8123;50.906;6.172;2023-11-18T09:05:55;8.30;1.00
16038;DHT22;8123;50.906;6.172;2023-11-18T09:08:29;8.40;1.00
16038;DHT22;8123;50.906;6.172;2023-11-18T09:10:58;8.40;1.00
16038;DHT22;8123;50.906;6.172;2023-11-18T09:13:25;8.50;1.00
16038;DHT22;8123;50.906;6.172;2023-11-18T09:15:58;8.50;1.00
16038;DHT22;8123;50.906;6.172;2023-11-18T09:18:26;8.50;1.00
16038;DHT22;8123;50.906;6.172;2023-11-18T09:20:53;8.60;1.00
16038;DHT22;8123;50.906;6.172;2023-11-18T09:23:21;8.50;1.00
16038;DHT22;8123;50.906;6.172;2023-11-18T09:25:49;8.60;1.00
16038;DHT22;8123;50.906;6.172;2023-11-18T09:28:15;8.70;1.00
16038;DHT22;8123;50.906;6.172;2023-11-18T09:30:42;8.60;1.00
16038;DHT22;8123;50.906;6.172;2023-11-18T09:33:24;8.60;1.00
16038;DHT22;8123;50.906;6.172;2023-11-18T09:36:04;8.60;1.00
16038;DHT22;8123;50.906;6.172;2023-11-18T09:38:34;8.60;1.00
16038;DHT22;8123;50.906;6.172;2023-11-18T09:41:02;8.60;1.00
16038;DHT22;8123;50.906;6.172;2023-11-18T09:43:34;8.80;1.00
16038;DHT22;8123;50.906;6.172;2023-11-18T09:46:14;8.60;1.00
16038;DHT22;8123;50.906;6.172;2023-11-18T09:48:50;8.80;1.00
16038;DHT22;8123;50.906;6.172;2023-11-18T09:51:32;8.70;1.00
16038;DHT22;8123;50.906;6.172;2023-11-18T09:54:04;8.90;1.00
16038;DHT22;8123;50.906;6.172;2023-11-18T09:59:31;8.70;1.00
16038;DHT22;8123;50.906;6.172;2023-11-18T10:02:03;8.70;1.00
16038;DHT22;8123;50.906;6.172;2023-11-18T10:04:39;8.70;1.00
16038;DHT22;8123;50.906;6.172;2023-11-18T10:07:06;8.70;1.00
16038;DHT22;8123;50.906;6.172;2023-11-18T10:09:33;8.80;1.00
16038;DHT22;8123;50.906;6.172;2023-11-18T10:12:08;8.70;1.00
16038;DHT22;8123;50.906;6.172;2023-11-18T10:14:41;8.70;1.00
16038;DHT22;8123;50.906;6.172;2023-11-18T10:17:09;8.70;1.00
16038;DHT22;8123;50.906;6.172;2023-11-18T10:19:56;8.80;1.00
16038;DHT22;8123;50.906;6.172;2023-11-18T10:22:24;8.70;1.00
16038;DHT22;8123;50.906;6.172;2023-11-18T10:24:51;8.70;1.00
16038;DHT22;8123;50.906;6.172;2023-11-18T10:27:22;8.70;1.00
16038;DHT22;8123;50.906;6.172;2023-11-18T10:29:49;8.60;1.00
16038;DHT22;8123;50.906;6.172;2023-11-18T10:32:15;8.70;1.00
16038;DHT22;8123;50.906;6.172;2023-11-18T10:34:45;8.60;1.00
16038;DHT22;8123;50.906;6.172;2023-11-18T10:37:12;8.70;1.00
16038;DHT22;8123;50.906;6.172;2023-11-18T10:39:37;8.70;1.00
16038;DHT22;8123;50.906;6.172;2023-11-18T10:42:03;8.70;1.00
16038;DHT22;8123;50.906;6.172;2023-11-18T10:44:29;8.70;1.00
16038;DHT22;8123;50.906;6.172;2023-11-18T10:46:55;8.70;1.00
16038;DHT22;8123;50.906;6.172;2023-11-18T10:49:28;8.70;1.00
16038;DHT22;8123;50.906;6.172;2023-11-18T10:51:55;8.70;1.00
16038;DHT22;8123;50.906;6.172;2023-11-18T10:54:22;8.70;1.00
16038;DHT22;8123;50.906;6.172;2023-11-18T10:56:51;8.70;1.00
16038;DHT22;8123;50.906;6.172;2023-11-18T10:59:22;8.80;1.00
16038;DHT22;8123;50.906;6.172;2023-11-18T11:01:48;8.70;1.00
16038;DHT22;8123;50.906;6.172;2023-11-18T11:04:15;8.80;1.00
16038;DHT22;8123;50.906;6.172;2023-11-18T11:06:48;8.80;1.00
16038;DHT22;8123;50.906;6.172;2023-11-18T11:09:23;9.00;1.00
16038;DHT22;8123;50.906;6.172;2023-11-18T11:12:10;9.00;1.00
16038;DHT22;8123;50.906;6.172;2023-11-18T11:14:58;8.80;1.00
16038;DHT22;8123;50.906;6.172;2023-11-18T11:17:27;8.90;1.00
16038;DHT22;8123;50.906;6.172;2023-11-18T11:20:06;8.80;1.00
16038;DHT22;8123;50.906;6.172;2023-11-18T11:26:07;8.90;1.00
16038;DHT22;8123;50.906;6.172;2023-11-18T11:31:48;9.00;1.00
16038;DHT22;8123;50.906;6.172;2023-11-18T11:34:19;9.00;1.00
16038;DHT22;8123;50.906;6.172;2023-11-18T11:36:50;9.00;1.00
16038;DHT22;8123;50.906;6.172;2023-11-18T11:39:17;9.10;1.00
16038;DHT22;8123;50.906;6.172;2023-11-18T11:41:51;9.10;1.00
16038;DHT22;8123;50.906;6.172;2023-11-18T11:44:17;9.10;1.00
16038;DHT22;8123;50.906;6.172;2023-11-18T11:46:49;9.10;1.00
16038;DHT22;8123;50.906;6.172;2023-11-18T11:49:20;9.10;1.00
16038;DHT22;8123;50.906;6.172;2023-11-18T11:51:48;9.20;1.00
16038;DHT22;8123;50.906;6.172;2023-11-18T11:54:23;9.20;1.00
16038;DHT22;8123;50.906;6.172;2023-11-18T11:56:56;9.20;1.00
16038;DHT22;8123;50.906;6.172;2023-11-18T12:02:25;9.30;1.00
16038;DHT22;8123;50.906;6.172;2023-11-18T12:04:57;9.20;1.00
16038;DHT22;8123;50.906;6.172;2023-11-18T12:07:32;9.30;1.00
16038;DHT22;8123;50.906;6.172;2023-11-18T12:10:08;9.20;1.00
16038;DHT22;8123;50.906;6.172;2023-11-18T12:12:39;9.20;1.00
16038;DHT22;8123;50.906;6.172;2023-11-18T12:15:05;9.20;1.00
16038;DHT22;8123;50.906;6.172;2023-11-18T12:18:09;9.20;1.00
16038;DHT22;8123;50.906;6.172;2023-11-18T12:20:45;9.20;1.00
16038;DHT22;8123;50.906;6.172;2023-11-18T12:23:19;9.20;1.00
16038;DHT22;8123;50.906;6.172;2023-11-18T12:25:49;9.20;1.00
16038;DHT22;8123;50.906;6.172;2023-11-18T12:28:20;9.30;1.00
16038;DHT22;8123;50.906;6.172;2023-11-18T12:30:53;9.50;1.00
16038;DHT22;8123;50.906;6.172;2023-11-18T12:33:31;9.20;1.00
16038;DHT22;8123;50.906;6.172;2023-11-18T12:41:39;9.10;1.00
16038;DHT22;8123;50.906;6.172;2023-11-18T12:47:20;9.00;1.00
16038;DHT22;8123;50.906;6.172;2023-11-18T12:49:53;9.00;1.00
16038;DHT22;8123;50.906;6.172;2023-11-18T12:52:22;9.00;1.00
16038;DHT22;8123;50.906;6.172;2023-11-18T12:54:51;9.00;1.00
16038;DHT22;8123;50.906;6.172;2023-11-18T12:57:20;9.20;1.00
16038;DHT22;8123;50.906;6.172;2023-11-18T12:59:48;9.30;1.00
16038;DHT22;8123;50.906;6.172;2023-11-18T13:02:15;9.00;1.00
16038;DHT22;8123;50.906;6.172;2023-11-18T13:04:48;9.00;1.00
16038;DHT22;8123;50.906;6.172;2023-11-18T13:07:18;9.00;1.00
16038;DHT22;8123;50.906;6.172;2023-11-18T13:09:44;9.00;1.00
16038;DHT22;8123;50.906;6.172;2023-11-18T13:12:12;9.00;1.00
16038;DHT22;8123;50.906;6.172;2023-11-18T13:14:42;9.00;1.00
16038;DHT22;8123;50.906;6.172;2023-11-18T13:17:12;9.00;1.00
16038;DHT22;8123;50.906;6.172;2023-11-18T13:19:39;9.00;1.00
16038;DHT22;8123;50.906;6.172;2023-11-18T13:22:07;9.00;1.00
16038;DHT22;8123;50.906;6.172;2023-11-18T13:24:42;9.00;1.00
16038;DHT22;8123;50.906;6.172;2023-11-18T13:27:10;9.10;1.00
16038;DHT22;8123;50.906;6.172;2023-11-18T13:29:37;9.00;1.00
16038;DHT22;8123;50.906;6.172;2023-11-18T13:32:05;8.70;1.00
16038;DHT22;8123;50.906;6.172;2023-11-18T13:34:35;8.90;1.00
16038;DHT22;8123;50.906;6.172;2023-11-18T13:37:04;9.00;1.00
16038;DHT22;8123;50.906;6.172;2023-11-18T13:39:31;9.00;1.00
16038;DHT22;8123;50.906;6.172;2023-11-18T13:41:57;9.00;1.00
16038;DHT22;8123;50.906;6.172;2023-11-18T13:44:36;9.30;1.00
16038;DHT22;8123;50.906;6.172;2023-11-18T13:47:05;9.10;1.00
16038;DHT22;8123;50.906;6.172;2023-11-18T13:49:34;9.00;1.00
16038;DHT22;8123;50.906;6.172;2023-11-18T13:52:00;9.00;1.00
16038;DHT22;8123;50.906;6.172;2023-11-18T13:54:29;9.00;1.00
16038;DHT22;8123;50.906;6.172;2023-11-18T13:56:57;9.20;1.00
16038;DHT22;8123;50.906;6.172;2023-11-18T13:59:27;9.10;1.00
16038;DHT22;8123;50.906;6.172;2023-11-18T14:01:58;9.10;1.00
16038;DHT22;8123;50.906;6.172;2023-11-18T14:04:27;9.10;1.00
16038;DHT22;8123;50.906;6.172;2023-11-18T14:06:57;9.20;1.00
16038;DHT22;8123;50.906;6.172;2023-11-18T14:09:23;9.10;1.00
16038;DHT22;8123;50.906;6.172;2023-11-18T14:11:53;9.10;1.00
16038;DHT22;8123;50.906;6.172;2023-11-18T14:14:24;9.10;1.00
16038;DHT22;8123;50.906;6.172;2023-11-18T14:16:51;9.20;1.00
16038;DHT22;8123;50.906;6.172;2023-11-18T14:19:19;9.20;1.00
16038;DHT22;8123;50.906;6.172;2023-11-18T14:21:45;9.10;1.00
16038;DHT22;8123;50.906;6.172;2023-11-18T14:24:11;9.10;1.00
16038;DHT22;8123;50.906;6.172;2023-11-18T14:26:40;9.10;1.00
16038;DHT22;8123;50.906;6.172;2023-11-18T14:29:07;9.10;1.00
16038;DHT22;8123;50.906;6.172;2023-11-18T14:31:33;9.10;1.00
16038;DHT22;8123;50.906;6.172;2023-11-18T14:34:00;9.00;1.00
16038;DHT22;8123;50.906;6.172;2023-11-18T14:36:26;9.00;9.20
16038;DHT22;8123;50.906;6.172;2023-11-18T14:38:52;8.90;20.50
16038;DHT22;8123;50.906;6.172;2023-11-18T14:41:18;8.90;34.80
16038;DHT22;8123;50.906;6.172;2023-11-18T14:43:45;8.90;43.10
16038;DHT22;8123;50.906;6.172;2023-11-18T14:46:11;9.00;52.40
16038;DHT22;8123;50.906;6.172;2023-11-18T14:48:38;9.20;57.20
16038;DHT22;8123;50.906;6.172;2023-11-18T14:51:04;8.90;65.10
16038;DHT22;8123;50.906;6.172;2023-11-18T14:53:30;8.90;74.80
16038;DHT22;8123;50.906;6.172;2023-11-18T14:55:56;8.90;78.90
16038;DHT22;8123;50.906;6.172;2023-11-18T14:58:23;8.90;78.20
16038;DHT22;8123;50.906;6.172;2023-11-18T15:00:48;9.00;87.20
16038;DHT22;8123;50.906;6.172;2023-11-18T15:03:14;8.90;90.70
16038;DHT22;8123;50.906;6.172;2023-11-18T15:05:41;8.90;92.00
16038;DHT22;8123;50.906;6.172;2023-11-18T15:08:09;9.00;90.40
16038;DHT22;8123;50.906;6.172;2023-11-18T15:10:35;9.00;85.10
16038;DHT22;8123;50.906;6.172;2023-11-18T15:13:02;9.00;70.40
16038;DHT22;8123;50.906;6.172;2023-11-18T15:15:30;9.00;59.50
16038;DHT22;8123;50.906;6.172;2023-11-18T15:18:06;9.10;59.20
16038;DHT22;8123;50.906;6.172;2023-11-18T15:20:39;9.10;62.10
16038;DHT22;8123;50.906;6.172;2023-11-18T15:23:08;9.10;66.60
16038;DHT22;8123;50.906;6.172;2023-11-18T15:25:34;9.10;73.60
16038;DHT22;8123;50.906;6.172;2023-11-18T15:28:00;9.10;86.50
16038;DHT22;8123;50.906;6.172;2023-11-18T15:30:26;9.10;93.30
16038;DHT22;8123;50.906;6.172;2023-11-18T15:32:53;9.10;98.60
16038;DHT22;8123;50.906;6.172;2023-11-18T15:35:19;9.00;99.90
16038;DHT22;8123;50.906;6.172;2023-11-18T15:37:46;9.10;99.90
16038;DHT22;8123;50.906;6.172;2023-11-18T15:40:14;9.10;99.90
16038;DHT22;8123;50.906;6.172;2023-11-18T15:42:45;9.30;99.90
16038;DHT22;8123;50.906;6.172;2023-11-18T15:45:15;9.10;99.90
16038;DHT22;8123;50.906;6.172;2023-11-18T15:47:42;9.50;99.90
16038;DHT22;8123;50.906;6.172;2023-11-18T15:50:10;9.30;96.90
16038;DHT22;8123;50.906;6.172;2023-11-18T15:52:45;9.30;93.00
16038;DHT22;8123;50.906;6.172;2023-11-18T15:55:11;9.60;91.60
16038;DHT22;8123;50.906;6.172;2023-11-18T15:57:44;9.40;85.50
16038;DHT22;8123;50.906;6.172;2023-11-18T16:00:11;9.40;83.70
16038;DHT22;8123;50.906;6.172;2023-11-18T16:02:45;9.40;81.80
16038;DHT22;8123;50.906;6.172;2023-11-18T16:05:16;9.50;76.00
16038;DHT22;8123;50.906;6.172;2023-11-18T16:07:45;9.50;80.70
16038;DHT22;8123;50.906;6.172;2023-11-18T16:10:12;9.50;80.00
16038;DHT22;8123;50.906;6.172;2023-11-18T16:12:47;9.50;76.60
16038;DHT22;8123;50.906;6.172;2023-11-18T16:15:14;9.50;76.70
16038;DHT22;8123;50.906;6.172;2023-11-18T16:17:41;9.50;85.10
16038;DHT22;8123;50.906;6.172;2023-11-18T16:20:07;9.50;90.00
16038;DHT22;8123;50.906;6.172;2023-11-18T16:22:34;9.50;93.90
16038;DHT22;8123;50.906;6.172;2023-11-18T16:25:01;9.50;95.80
16038;DHT22;8123;50.906;6.172;2023-11-18T16:27:29;9.50;99.90
16038;DHT22;8123;50.906;6.172;2023-11-18T16:29:55;9.60;99.70
16038;DHT22;8123;50.906;6.172;2023-11-18T16:32:21;9.80;96.00
16038;DHT22;8123;50.906;6.172;2023-11-18T16:34:46;9.80;93.70
16038;DHT22;8123;50.906;6.172;2023-11-18T16:37:12;9.70;92.30
16038;DHT22;8123;50.906;6.172;2023-11-18T16:39:40;9.60;86.20
16038;DHT22;8123;50.906;6.172;2023-11-18T16:42:06;9.70;68.70